createdAt,value
2023-05-13T00:00:53.665Z,5.10
2023-05-13T00:03:25.521Z,3.08
2023-05-13T00:05:57.660Z,1.58
2023-05-13T00:08:29.521Z,1.38
2023-05-13T00:11:01.445Z,4.70
2023-05-13T00:13:33.461Z,3.70
2023-05-13T00:16:05.379Z,3.00
2023-05-13T00:18:37.342Z,3.25
2023-05-13T00:21:09.244Z,3.83
2023-05-13T00:23:41.114Z,4.28
2023-05-13T00:26:13.027Z,2.50
2023-05-13T00:28:44.888Z,3.47
2023-05-13T00:31:16.889Z,3.75
2023-05-13T00:33:49.230Z,2.47
2023-05-13T00:36:21.142Z,3.33
2023-05-13T00:38:53.197Z,3.25
2023-05-13T00:41:25.124Z,4.22
2023-05-13T00:43:57.508Z,2.67
2023-05-13T00:46:33.439Z,3.75
2023-05-13T00:49:05.525Z,2.17
2023-05-13T00:51:37.467Z,3.35
2023-05-13T00:54:09.303Z,3.03
2023-05-13T00:56:41.112Z,2.60
2023-05-13T00:59:12.912Z,1.65
2023-05-13T01:01:50.572Z,5.35
2023-05-13T01:04:42.526Z,3.75
2023-05-13T01:07:48.334Z,4.15
2023-05-13T01:10:31.960Z,4.03
2023-05-13T01:13:10.096Z,3.10
2023-05-13T01:15:56.699Z,4.28
2023-05-13T01:18:36.916Z,3.22
2023-05-13T01:21:09.761Z,3.97
2023-05-13T01:23:41.683Z,1.35
2023-05-13T01:26:14.166Z,3.92
2023-05-13T01:28:46.551Z,2.65
2023-05-13T01:31:20.018Z,3.00
2023-05-13T01:33:52.994Z,2.50
2023-05-13T01:36:25.055Z,3.03
2023-05-13T01:38:57.208Z,1.25
2023-05-13T01:41:32.524Z,1.45
2023-05-13T01:44:04.448Z,3.67
2023-05-13T01:46:40.892Z,1.23
2023-05-13T01:49:12.988Z,1.85
2023-05-13T01:51:44.910Z,1.88
2023-05-13T01:54:16.887Z,4.30
2023-05-13T01:56:54.045Z,1.98
2023-05-13T01:59:26.139Z,3.63
2023-05-13T02:01:58.478Z,1.77
2023-05-13T02:04:32.215Z,4.88
2023-05-13T02:07:04.407Z,4.18
2023-05-13T02:09:37.806Z,2.38
2023-05-13T02:12:11.011Z,1.35
2023-05-13T02:14:46.165Z,5.00
2023-05-13T02:17:18.020Z,2.38
2023-05-13T02:19:50.459Z,1.60
2023-05-13T02:22:22.339Z,2.42
2023-05-13T02:24:54.238Z,4.20
2023-05-13T02:27:26.223Z,1.88
2023-05-13T02:29:58.365Z,1.02
2023-05-13T02:32:30.537Z,2.50
2023-05-13T02:35:02.373Z,4.88
2023-05-13T02:37:34.390Z,2.17
2023-05-13T02:40:08.754Z,3.15
2023-05-13T02:42:40.977Z,1.55
2023-05-13T02:45:13.688Z,4.32
2023-05-13T02:47:48.909Z,0.90
2023-05-13T02:50:21.793Z,1.70
2023-05-13T02:52:54.105Z,3.30
2023-05-13T02:55:26.339Z,7.03
2023-05-13T02:57:58.293Z,2.63
2023-05-13T03:00:31.104Z,2.05
2023-05-13T03:03:03.145Z,1.30
2023-05-13T03:05:35.131Z,2.30
2023-05-13T03:08:07.024Z,5.10
2023-05-13T03:10:38.942Z,3.28
2023-05-13T03:13:11.403Z,6.10
2023-05-13T03:15:44.459Z,2.78
2023-05-13T03:18:17.010Z,2.80
2023-05-13T03:20:49.173Z,2.40
2023-05-13T03:23:21.195Z,3.22
2023-05-13T03:25:54.854Z,2.75
2023-05-13T03:28:26.782Z,2.85
2023-05-13T03:30:58.760Z,3.22
2023-05-13T03:33:31.950Z,3.10
2023-05-13T03:36:04.879Z,4.15
2023-05-13T03:38:37.410Z,6.40
2023-05-13T03:41:09.364Z,3.08
2023-05-13T03:43:41.520Z,3.88
2023-05-13T03:46:16.453Z,2.65
2023-05-13T03:48:48.351Z,4.45
2023-05-13T03:51:20.954Z,1.63
2023-05-13T03:53:53.042Z,1.15
2023-05-13T03:56:25.393Z,3.22
2023-05-13T03:58:57.254Z,1.98
2023-05-13T04:01:30.162Z,3.15
2023-05-13T04:04:02.009Z,2.38
2023-05-13T04:06:36.563Z,4.45
2023-05-13T04:09:08.497Z,4.55
2023-05-13T04:11:40.687Z,1.27
2023-05-13T04:14:12.594Z,2.70
2023-05-13T04:16:44.544Z,1.20
2023-05-13T04:19:16.434Z,1.30
2023-05-13T04:21:48.297Z,3.42
2023-05-13T04:24:20.168Z,5.20
2023-05-13T04:26:54.184Z,1.48
2023-05-13T04:29:26.037Z,1.33
2023-05-13T04:31:58.033Z,12.57
2023-05-13T04:34:29.993Z,4.38
2023-05-13T04:37:02.119Z,4.10
2023-05-13T04:39:34.004Z,4.07
2023-05-13T04:42:06.353Z,3.22
2023-05-13T04:44:38.237Z,2.65
2023-05-13T04:47:10.251Z,1.20
2023-05-13T04:49:42.548Z,3.92
2023-05-13T04:52:14.785Z,1.23
2023-05-13T04:54:46.771Z,2.45
2023-05-13T04:57:18.756Z,3.38
2023-05-13T04:59:51.328Z,2.83
2023-05-13T05:02:23.832Z,2.58
2023-05-13T05:04:58.937Z,2.97
2023-05-13T05:07:31.373Z,1.48
2023-05-13T05:10:03.507Z,3.40
2023-05-13T05:12:38.143Z,3.63
2023-05-13T05:15:15.720Z,2.53
2023-05-13T05:17:49.881Z,1.50
2023-05-13T05:20:22.033Z,4.95
2023-05-13T05:22:54.781Z,1.75
2023-05-13T05:25:29.869Z,3.10
2023-05-13T05:28:04.954Z,3.85
2023-05-13T05:30:40.467Z,1.83
2023-05-13T05:33:19.933Z,2.40
2023-05-13T05:35:52.194Z,2.40
2023-05-13T05:38:26.133Z,2.75
2023-05-13T05:41:00.673Z,2.85
2023-05-13T05:43:33.291Z,3.30
2023-05-13T05:46:05.259Z,3.40
2023-05-13T05:48:37.459Z,1.75
2023-05-13T05:51:09.804Z,3.88
2023-05-13T05:53:42.335Z,2.45
2023-05-13T05:56:16.772Z,1.70
2023-05-13T05:58:52.754Z,1.58
2023-05-13T06:01:25.096Z,3.08
2023-05-13T06:03:57.378Z,3.50
2023-05-13T06:06:35.278Z,1.83
2023-05-13T06:09:07.191Z,2.67
2023-05-13T06:11:39.180Z,3.03
2023-05-13T06:14:11.192Z,2.60
2023-05-13T06:16:46.715Z,3.53
2023-05-13T06:19:20.831Z,3.35
2023-05-13T06:21:52.836Z,6.50
2023-05-13T06:24:24.743Z,2.15
2023-05-13T06:26:59.637Z,2.63
2023-05-13T06:29:33.029Z,4.20
2023-05-13T06:32:05.343Z,3.47
2023-05-13T06:34:40.092Z,3.05
2023-05-13T06:37:13.687Z,3.15
2023-05-13T06:39:48.646Z,2.35
2023-05-13T06:42:20.953Z,2.35
2023-05-13T06:45:00.812Z,1.50
2023-05-13T06:47:35.466Z,2.33
2023-05-13T06:50:08.551Z,1.08
2023-05-13T06:52:42.034Z,1.25
2023-05-13T06:55:14.067Z,3.45
2023-05-13T06:57:46.948Z,2.15
2023-05-13T07:00:19.289Z,2.88
2023-05-13T07:02:51.329Z,4.40
2023-05-13T07:05:23.361Z,2.00
2023-05-13T07:07:55.237Z,2.95
2023-05-13T07:10:27.216Z,3.95
2023-05-13T07:12:59.129Z,5.55
2023-05-13T07:15:30.998Z,5.75
2023-05-13T07:18:02.960Z,3.72
2023-05-13T16:28:43.837Z,2.95
2023-05-13T16:31:15.771Z,2.17
2023-05-13T16:33:47.855Z,1.90
2023-05-13T16:36:19.670Z,3.47
2023-05-13T16:38:51.541Z,1.75
2023-05-13T16:41:23.432Z,3.17
2023-05-13T16:43:55.296Z,3.85
2023-05-13T16:46:27.363Z,4.07
2023-05-13T16:49:00.141Z,1.40
2023-05-13T16:51:32.319Z,2.25
2023-05-13T16:54:04.348Z,1.80
2023-05-13T16:56:36.759Z,2.05
2023-05-13T16:59:09.264Z,1.85
2023-05-13T17:01:41.185Z,3.17
2023-05-13T17:04:13.117Z,1.40
2023-05-13T17:06:45.047Z,2.20
2023-05-13T17:09:16.956Z,2.53
2023-05-13T17:11:48.818Z,3.15
2023-05-13T17:14:21.438Z,1.80
2023-05-13T17:16:53.570Z,5.32
2023-05-13T17:19:25.488Z,2.55
2023-05-13T17:21:57.413Z,3.15
2023-05-13T17:24:29.573Z,3.17
2023-05-13T17:27:01.591Z,1.75
2023-05-13T17:29:33.408Z,1.75
2023-05-13T17:32:05.798Z,1.80
2023-05-13T17:34:37.703Z,1.42
2023-05-13T17:37:09.562Z,1.38
2023-05-13T17:39:41.404Z,1.10
2023-05-13T17:42:13.319Z,1.05
2023-05-13T17:44:45.268Z,1.35
2023-05-13T17:47:17.181Z,1.75
2023-05-13T17:49:49.063Z,5.40
2023-05-13T17:52:20.994Z,27.00
2023-05-13T17:54:52.912Z,4.85
2023-05-13T17:57:24.787Z,13.00
2023-05-13T17:59:57.845Z,44.72
2023-05-13T18:02:29.751Z,43.20
2023-05-13T18:05:01.947Z,27.27
2023-05-13T18:07:33.829Z,8.23
2023-05-13T18:10:06.520Z,12.98
2023-05-13T18:12:38.478Z,10.73
2023-05-13T18:15:10.510Z,2.42
2023-05-13T18:17:42.425Z,1.90
2023-05-13T18:20:14.316Z,2.00
2023-05-13T18:22:46.191Z,1.00
2023-05-13T18:25:18.151Z,2.35
2023-05-13T18:27:50.585Z,2.50
2023-05-13T18:30:22.741Z,1.77
2023-05-13T18:32:54.935Z,6.70
2023-05-13T18:35:27.030Z,2.50
2023-05-13T18:37:58.896Z,1.98
2023-05-13T18:40:30.755Z,2.08
2023-05-13T18:43:02.698Z,2.20
2023-05-13T18:45:34.582Z,3.95
2023-05-13T18:48:06.704Z,1.95
2023-05-13T18:50:38.597Z,1.98
2023-05-13T18:53:10.491Z,5.13
2023-05-13T18:55:42.944Z,3.55
2023-05-13T18:58:14.810Z,2.10
2023-05-13T19:00:46.965Z,3.70
2023-05-13T19:03:18.867Z,1.52
2023-05-13T19:05:50.826Z,4.13
2023-05-13T19:08:22.761Z,7.47
2023-05-13T19:10:54.692Z,16.52
2023-05-13T19:13:33.187Z,37.78
2023-05-13T19:16:11.525Z,5.82
2023-05-13T19:18:43.491Z,5.50
2023-05-13T19:21:15.636Z,2.67
2023-05-13T19:23:47.507Z,2.85
2023-05-13T19:26:19.430Z,2.58
2023-05-13T19:28:51.761Z,4.15
2023-05-13T19:31:24.722Z,3.13
2023-05-13T19:33:56.752Z,3.53
2023-05-13T19:36:28.644Z,2.35
2023-05-13T19:39:00.690Z,2.88
2023-05-13T19:41:34.458Z,2.80
2023-05-13T19:44:06.435Z,3.15
2023-05-13T19:46:38.411Z,4.93
2023-05-13T19:49:10.377Z,4.82
2023-05-13T19:51:42.176Z,1.80
2023-05-13T19:54:14.088Z,1.77
2023-05-13T19:56:46.263Z,1.98
2023-05-13T19:59:18.179Z,6.15
2023-05-13T20:01:50.120Z,5.03
2023-05-13T20:04:21.986Z,3.92
2023-05-13T20:06:53.906Z,4.07
2023-05-13T20:09:26.918Z,7.43
2023-05-13T20:11:58.799Z,4.07
2023-05-13T20:14:44.544Z,3.08
2023-05-13T20:17:19.086Z,3.47
2023-05-13T20:19:52.175Z,2.42
2023-05-13T20:22:24.105Z,2.70
2023-05-13T20:24:56.052Z,2.78
2023-05-13T20:27:27.944Z,2.65
2023-05-13T20:30:01.169Z,2.28
2023-05-13T20:32:33.060Z,5.00
2023-05-13T20:35:05.426Z,6.32
2023-05-13T20:37:37.346Z,3.72
2023-05-13T20:40:12.606Z,2.58
2023-05-13T20:42:44.576Z,3.70
2023-05-13T20:45:16.531Z,1.98
2023-05-13T20:47:48.536Z,2.92
2023-05-13T20:50:20.571Z,1.80
2023-05-13T20:52:53.033Z,3.95
2023-05-13T20:55:24.915Z,4.20
2023-05-13T20:57:56.791Z,2.78
2023-05-13T21:00:28.659Z,2.33
2023-05-13T21:03:00.929Z,3.75
2023-05-13T21:05:32.938Z,1.40
2023-05-13T21:08:04.973Z,1.40
2023-05-13T21:10:36.863Z,1.65
2023-05-13T21:13:08.694Z,3.30
2023-05-13T21:15:40.616Z,1.88
2023-05-13T21:18:12.581Z,3.22
2023-05-13T21:20:45.181Z,2.92
2023-05-13T21:23:19.402Z,1.50
2023-05-13T21:25:52.355Z,2.58
2023-05-13T21:28:24.230Z,2.92
2023-05-13T21:30:56.056Z,2.45
2023-05-13T21:33:28.351Z,2.40
2023-05-13T21:36:00.239Z,2.47
2023-05-13T21:38:32.130Z,3.15
2023-05-13T21:41:03.971Z,3.90
2023-05-13T21:43:35.900Z,2.38
2023-05-13T21:46:07.725Z,2.88
2023-05-13T21:48:39.617Z,4.28
2023-05-13T21:51:11.480Z,3.03
2023-05-13T21:53:43.486Z,2.90
2023-05-13T21:56:15.417Z,2.58
2023-05-13T21:58:48.815Z,3.85
2023-05-13T22:01:21.260Z,2.10
2023-05-13T22:03:53.135Z,1.30
2023-05-13T22:06:25.061Z,2.00
2023-05-13T22:08:57.177Z,1.90
2023-05-13T22:11:28.990Z,2.13
2023-05-13T22:14:00.861Z,4.13
2023-05-13T22:16:32.875Z,2.67
2023-05-13T22:19:04.946Z,3.50
2023-05-13T22:21:37.062Z,2.92
2023-05-13T22:24:08.976Z,3.15
2023-05-13T22:26:43.649Z,3.58
2023-05-13T22:29:15.510Z,5.90
2023-05-13T22:31:47.405Z,4.05
2023-05-13T22:34:19.325Z,1.83
2023-05-13T22:36:51.178Z,3.38
2023-05-13T22:39:23.089Z,1.67
2023-05-13T22:41:55.648Z,1.38
2023-05-13T22:44:27.637Z,3.80
2023-05-13T22:46:59.524Z,4.18
2023-05-13T22:49:31.529Z,1.00
2023-05-13T22:52:03.615Z,1.00
2023-05-13T22:54:35.490Z,0.98
2023-05-13T22:57:07.517Z,1.98
2023-05-13T22:59:39.385Z,3.15
2023-05-13T23:02:11.549Z,1.30
2023-05-13T23:04:43.527Z,3.00
2023-05-13T23:07:15.378Z,1.38
2023-05-13T23:09:47.276Z,1.88
2023-05-13T23:12:19.134Z,1.02
2023-05-13T23:14:51.012Z,1.38
2023-05-13T23:17:22.969Z,3.17
2023-05-13T23:19:54.980Z,5.00
2023-05-13T23:22:26.861Z,2.95
2023-05-13T23:24:58.724Z,1.15
2023-05-13T23:27:31.575Z,2.28
2023-05-13T23:30:03.671Z,2.70
2023-05-13T23:32:35.667Z,1.65
2023-05-13T23:35:08.085Z,2.92
2023-05-13T23:37:39.994Z,1.15
2023-05-13T23:40:12.269Z,4.38
2023-05-13T23:42:44.148Z,2.45
2023-05-13T23:45:16.197Z,3.15
2023-05-13T23:47:48.222Z,2.97
2023-05-13T23:50:20.162Z,2.33
2023-05-13T23:52:52.028Z,4.45
2023-05-13T23:55:23.968Z,1.08
2023-05-13T23:57:56.089Z,1.90
